• Join FlightAware (Why Join?)
  • Login
  • US Flag 
01:15PM EDT


 

Airport Tracker/Info


-or-


 

Live Flight TrackerFlight Track Log ✈ FDX1254 ✈ 19-Apr-2013 ✈ KFWA - KMEM

Flight Track Log - Related Links

Times and Time Zones

All times are in EDT time to prevent confusion due to time zone crossing. See the FDX1254 flight status page for this flight to view local times or setup timezone preferences in your user account.

Time Position Orientation Groundspeed Altitude Reporting Facility
EDT Latitude Longitude Course Direction KTS MPH feet Rate Location/Type
11:22PM 40.8290 -85.3420 218° Southwest 274 315 11,500  Level FlightAware
11:22PM 40.7950 -85.3760 217° Southwest 305 351 12,600 780 Climbing FlightAware
11:23PM 40.7470 -85.4220 216° Southwest 305 351 12,600  Level FlightAware
11:24PM 40.7080 -85.4590 216° Southwest 305 351 12,600 4,800 Level FlightAware
11:25PM 40.6240 -85.5520 220° Southwest 377 434 19,400 6,000 Climbing FlightAware
11:25PM 40.5600 -85.6180 218° Southwest 392 451 21,600 3,000 Climbing FlightAware
11:26PM 40.5010 -85.6770 217° Southwest 392 451 23,700 2,700 Climbing FlightAware
11:27PM 40.4420 -85.7380 218° Southwest 400 460 25,500 2,580 Climbing FlightAware
11:27PM 40.3790 -85.8010 217° Southwest 403 464 27,400 2,280 Climbing FlightAware
11:28PM 40.3130 -85.8680 218° Southwest 412 474 28,800 2,220 Climbing FlightAware
11:29PM 40.2570 -85.9240 217° Southwest 410 472 30,400 2,580 Climbing FlightAware
11:30PM 40.1880 -85.9930 217° Southwest 406 467 32,300 2,160 Climbing FlightAware
11:30PM 40.1220 -86.0590 217° Southwest 410 472 33,700 2,160 Climbing FlightAware
11:31PM 40.0630 -86.1190 218° Southwest 399 459 35,400 1,620 Climbing FlightAware
11:32PM 39.9990 -86.1820 217° Southwest 409 471 36,000 420 Climbing FlightAware
11:32PM 39.9370 -86.2450 218° Southwest 411 473 36,000  Level FlightAware
11:33PM 39.8750 -86.3050 217° Southwest 407 468 36,000  Level FlightAware
11:34PM 39.8070 -86.3700 216° Southwest 408 470 36,000  Level FlightAware
11:34PM 39.7560 -86.4100 211° Southwest 408 470 36,000  Level FlightAware
11:35PM 39.6780 -86.4690 210° Southwest 405 466 36,000  Level FlightAware
11:36PM 39.6020 -86.5260 210° Southwest 405 466 36,000  Level FlightAware
11:37PM 39.5410 -86.5720 210° Southwest 405 466 36,000  Level FlightAware
11:37PM 39.4680 -86.6280 211° Southwest 405 466 36,000  Level FlightAware
11:38PM 39.4030 -86.6760 210° Southwest 405 466 36,000  Level FlightAware
11:39PM 39.3370 -86.7250 210° Southwest 408 470 36,000  Level FlightAware
11:39PM 39.2610 -86.7820 210° Southwest 409 471 36,000  Level FlightAware
11:40PM 39.2000 -86.8280 210° Southwest 407 468 36,000  Level FlightAware
11:41PM 39.1340 -86.8760 209° Southwest 408 470 36,000  Level FlightAware
11:41PM 39.0650 -86.9280 210° Southwest 408 470 36,000  Level FlightAware
11:42PM 39.0010 -86.9750 210° Southwest 407 468 36,000  Level FlightAware
11:43PM 38.9340 -87.0240 210° Southwest 407 468 36,000  Level FlightAware
11:43PM 38.8610 -87.0780 210° Southwest 408 470 36,000  Level FlightAware
11:44PM 38.7970 -87.1250 210° Southwest 408 470 36,000  Level FlightAware
11:45PM 38.7250 -87.1780 210° Southwest 404 465 36,000  Level FlightAware
11:46PM 38.6570 -87.2280 210° Southwest 404 465 36,000  Level FlightAware
11:46PM 38.5950 -87.2730 210° Southwest 402 463 36,000  Level FlightAware
11:47PM 38.5220 -87.3260 210° Southwest 400 460 36,000  Level FlightAware
11:48PM 38.4560 -87.3740 210° Southwest 397 457 36,000  Level FlightAware
11:48PM 38.4020 -87.4130 210° Southwest 397 457 36,000  Level FlightAware
11:49PM 38.3290 -87.4660 210° Southwest 396 456 36,000  Level FlightAware
11:50PM 38.2650 -87.5120 209° Southwest 395 455 36,000  Level FlightAware
11:50PM 38.2010 -87.5580 209° Southwest 395 455 36,000  Level FlightAware
11:51PM 38.1280 -87.6110 210° Southwest 397 457 36,000  Level FlightAware
11:52PM 38.0660 -87.6550 209° Southwest 397 457 36,000  Level FlightAware
11:52PM 38.0010 -87.7010 209° Southwest 399 459 36,000  Level FlightAware
11:53PM 37.9290 -87.7580 212° Southwest 395 455 36,000  Level FlightAware
11:54PM 37.8800 -87.8220 226° Southwest 391 450 36,000 -660 Level FlightAware
11:55PM 37.8260 -87.9010 229° Southwest 399 459 35,100 -720 Descending FlightAware
11:55PM 37.7790 -87.9700 229° Southwest 406 467 35,000 -120 Descending FlightAware
11:56PM 37.7220 -88.0520 229° Southwest 402 463 35,000  Level FlightAware
11:57PM 37.6730 -88.1220 229° Southwest 403 464 35,000  Level FlightAware
11:57PM 37.6220 -88.1960 229° Southwest 404 465 35,000  Level FlightAware
11:58PM 37.5680 -88.2720 228° Southwest 405 466 35,000  Level FlightAware
11:59PM 37.5160 -88.3450 228° Southwest 405 466 35,000  Level FlightAware
11:59PM 37.4510 -88.4140 220° Southwest 413 475 35,000  Level FlightAware
12:00AM 37.3870 -88.4670 213° Southwest 414 476 35,000  Level FlightAware
12:01AM 37.3220 -88.5200 213° Southwest 414 476 35,000  Level FlightAware
12:01AM 37.2650 -88.5670 213° Southwest 411 473 35,000  Level FlightAware
12:02AM 37.1930 -88.6250 213° Southwest 411 473 35,000  Level FlightAware
12:03AM 37.1290 -88.6780 213° Southwest 411 473 35,000  Level FlightAware
12:04AM 37.0610 -88.7330 213° Southwest 411 473 35,000  Level FlightAware
12:04AM 37.0070 -88.7780 214° Southwest 411 473 35,000  Level FlightAware
12:05AM 36.9190 -88.8490 213° Southwest 411 473 35,000  Level FlightAware
12:06AM 36.8650 -88.8930 213° Southwest 411 473 35,000  Level FlightAware
12:07AM 36.7600 -88.9780 213° Southwest 410 472 35,000  Level FlightAware
12:07AM 36.6930 -89.0330 213° Southwest 409 471 35,000  Level FlightAware
12:08AM 36.6390 -89.0760 213° Southwest 409 471 35,000  Level FlightAware
12:09AM 36.5850 -89.1200 213° Southwest 409 471 35,000  Level FlightAware
12:09AM 36.5310 -89.1640 213° Southwest 409 471 35,000  Level FlightAware
12:10AM 36.4640 -89.2180 213° Southwest 409 471 35,000  Level FlightAware
12:11AM 36.4230 -89.2510 213° Southwest 409 471 35,000  Level FlightAware
12:12AM 36.3560 -89.3050 213° Southwest 409 471 35,000  Level FlightAware
12:12AM 36.3020 -89.3490 213° Southwest 409 471 35,000  Level FlightAware
12:13AM 36.2480 -89.3920 213° Southwest 409 471 35,000  Level FlightAware
12:14AM 36.1940 -89.4360 213° Southwest 409 471 35,000  Level FlightAware
12:14AM 36.1540 -89.4680 213° Southwest 409 471 35,000  Level FlightAware
12:15AM 36.1000 -89.5120 213° Southwest 409 471 35,000  Level FlightAware
12:16AM 36.0320 -89.5660 213° Southwest 409 471 35,000  Level FlightAware
12:16AM 35.9920 -89.5980 213° Southwest 409 471 35,000 -27,300 Level FlightAware
12:16AM 35.9231 -89.6572 213° Southwest 348 400 14,100 -18,240 Descending Memphis Center
12:17AM 35.8483 -89.7194 214° Southwest 336 387 11,900 -1,860 Descending Memphis Center
12:18AM 35.7694 -89.7761 210° Southwest 331 381 10,400 -1,080 Descending Memphis Center
12:19AM 35.7028 -89.8203 208° Southwest 310 357 9,800 -960 Descending Memphis Center
12:20AM 35.6258 -89.8258 183° South 263 303 8,500 -1,500 Descending Memphis Center
12:21AM 35.5400 -89.8083 171° South 290 334 6,900 -1,500 Descending Memphis Center
12:22AM 35.4586 -89.7964 173° South 302 348 5,600 -1,380 Descending Memphis Center
12:23AM 35.3814 -89.7842 173° South 290 334 4,200 -900 Descending Memphis Center
12:24AM 35.3042 -89.7744 174° South 284 327 3,800 -600 Descending Memphis Center
12:25AM 35.2311 -89.7622 172° South 273 314 3,000 -420 Descending Memphis Center
12:26AM 35.1497 -89.7475 172° South 273 314 3,000 -60 Level Memphis Center
12:27AM 35.0853 -89.7836 205° Southwest 265 305 2,900 -300 Descending Memphis Center
12:28AM 35.0500 -89.8319 228° Southwest 220 253 2,500 -720 Descending Memphis Center
12:29AM 35.0564 -89.8878 278° West 162 186 1,500 -840 Descending Memphis Center
12:30AM 35.0500 -89.9167 255° West 114 131 1,000 -660 Descending KMEM
12:33AM 35.0333 -89.9667 252° West  Level FlightAware Approximate
12:40AM 35.0424 -89.9767 252° West  Level Estimated
12:41AM 35.0424 -89.9767 252° West  Level Estimated
12:42AM 35.0424 -89.9767 252° West  Level Estimated
12:43AM 35.0424 -89.9767 252° West  Level Estimated
12:44AM 35.0424 -89.9767 252° West  Level Estimated
12:45AM 35.0424 -89.9767 252° West  Level Estimated
12:46AM 35.0424 -89.9767 252° West  Level Estimated